createdAt,value
2022-10-29T00:03:22.770Z,80
2022-10-29T00:08:24.236Z,80
2022-10-29T00:13:26.088Z,81
2022-10-29T00:18:27.774Z,81
2022-10-29T00:23:29.086Z,81
2022-10-29T00:28:31.181Z,81
2022-10-29T00:33:32.876Z,82
2022-10-29T00:38:34.470Z,82
2022-10-29T00:43:36.520Z,82
2022-10-29T00:48:37.721Z,82
2022-10-29T00:53:39.655Z,81
2022-10-29T00:58:41.243Z,81
2022-10-29T01:03:43.121Z,81
2022-10-29T01:08:44.424Z,82
2022-10-29T01:13:54.681Z,82
2022-10-29T01:18:56.505Z,82
2022-10-29T01:23:49.333Z,81
2022-10-29T01:28:51.473Z,82
2022-10-29T01:33:53.175Z,81
2022-10-29T01:38:55.192Z,81
2022-10-29T01:43:56.704Z,82
2022-10-29T01:48:58.378Z,82
2022-10-29T01:54:00.021Z,82
2022-10-29T01:59:01.474Z,82
2022-10-29T02:04:03.328Z,82
2022-10-29T02:09:04.935Z,82
2022-10-29T02:14:06.773Z,82
2022-10-29T02:19:08.023Z,82
2022-10-29T02:24:09.894Z,82
2022-10-29T02:29:11.760Z,82
2022-10-29T02:34:13.016Z,83
2022-10-29T02:39:14.928Z,83
2022-10-29T02:44:16.222Z,83
2022-10-29T02:49:18.102Z,83
2022-10-29T02:54:19.179Z,83
2022-10-29T02:59:20.607Z,83
2022-10-29T03:04:22.730Z,83
2022-10-29T03:09:24.791Z,82
2022-10-29T03:14:26.248Z,83
2022-10-29T03:19:27.920Z,83
2022-10-29T03:24:29.495Z,82
2022-10-29T03:29:31.049Z,83
2022-10-29T03:34:32.514Z,83
2022-10-29T03:39:34.435Z,82
2022-10-29T03:44:36.527Z,83
2022-10-29T03:49:38.781Z,83
2022-10-29T03:54:40.448Z,83
2022-10-29T03:59:42.102Z,83
2022-10-29T04:04:43.552Z,84
2022-10-29T04:09:45.306Z,83
2022-10-29T04:14:47.008Z,84
2022-10-29T04:19:49.045Z,84
2022-10-29T04:29:53.297Z,84
2022-10-29T04:34:54.974Z,84
2022-10-29T04:39:56.356Z,85
2022-10-29T04:44:57.912Z,85
2022-10-29T04:49:59.389Z,84
2022-10-29T04:55:00.584Z,84
2022-10-29T05:00:02.259Z,84
2022-10-29T05:05:04.177Z,84
2022-10-29T05:10:06.164Z,84
2022-10-29T05:15:08.104Z,83
2022-10-29T05:20:09.679Z,83
2022-10-29T05:25:11.104Z,83
2022-10-29T05:30:12.877Z,83
2022-10-29T05:35:15.028Z,83
2022-10-29T05:40:16.974Z,83
2022-10-29T05:45:18.921Z,83
2022-10-29T05:50:20.442Z,83
2022-10-29T05:55:22.248Z,83
2022-10-29T06:00:24.301Z,83
2022-10-29T06:05:26.061Z,83
2022-10-29T06:10:27.417Z,82
2022-10-29T06:15:29.248Z,83
2022-10-29T06:20:30.629Z,83
2022-10-29T06:25:32.298Z,82
2022-10-29T06:30:33.647Z,83
2022-10-29T06:40:37.551Z,82
2022-10-29T06:45:38.731Z,82
2022-10-29T06:50:40.701Z,82
2022-10-29T06:55:42.414Z,82
2022-10-29T07:00:44.045Z,82
2022-10-29T07:05:45.234Z,81
2022-10-29T07:10:47.373Z,79
2022-10-29T07:15:49.088Z,77
2022-10-29T07:20:50.649Z,74
2022-10-29T07:25:52.380Z,71
2022-10-29T07:30:53.542Z,70
2022-10-29T07:35:55.250Z,70
2022-10-29T07:40:56.462Z,70
2022-10-29T07:45:58.301Z,69
2022-10-29T07:50:59.602Z,70
2022-10-29T07:56:01.169Z,69
2022-10-29T08:01:02.518Z,69
2022-10-29T08:06:04.580Z,70
2022-10-29T08:11:06.293Z,70
2022-10-29T08:16:08.022Z,70
2022-10-29T08:21:09.901Z,69
2022-10-29T08:26:11.444Z,69
2022-10-29T08:31:13.275Z,69
2022-10-29T08:36:14.487Z,69
2022-10-29T08:41:15.889Z,67
2022-10-29T08:46:17.102Z,67
2022-10-29T08:51:18.321Z,68
2022-10-29T08:56:20.252Z,67
2022-10-29T09:01:21.950Z,67
2022-10-29T09:06:23.776Z,66
2022-10-29T09:11:25.101Z,66
2022-10-29T09:31:31.588Z,52
2022-10-29T09:41:34.966Z,47
2022-10-29T10:06:43.192Z,35
2022-10-29T10:16:46.287Z,33
2022-10-29T10:21:47.988Z,32
2022-10-29T10:26:50.093Z,31
2022-10-29T10:31:51.556Z,31
2022-10-29T10:36:53.621Z,31
2022-10-29T10:41:54.735Z,31
2022-10-29T10:46:55.922Z,30
2022-10-29T10:51:57.957Z,30
2022-10-29T10:56:59.754Z,30
2022-10-29T11:02:01.934Z,31
2022-10-29T11:07:03.838Z,31
2022-10-29T11:12:05.283Z,31
2022-10-29T11:17:06.847Z,32
2022-10-29T11:22:08.776Z,34
2022-10-29T11:27:10.620Z,35
2022-10-29T11:32:12.309Z,36
2022-10-29T11:37:14.021Z,37
2022-10-29T11:42:15.648Z,38
2022-10-29T11:47:17.382Z,39
2022-10-29T11:52:19.086Z,40
2022-10-29T11:57:20.740Z,40
2022-10-29T12:02:21.839Z,42
2022-10-29T12:07:23.856Z,42
2022-10-29T12:12:25.255Z,43
2022-10-29T12:17:26.683Z,43
2022-10-29T12:22:27.962Z,44
2022-10-29T12:27:29.257Z,43
2022-10-29T12:32:30.801Z,43
2022-10-29T12:37:32.292Z,43
2022-10-29T12:42:33.740Z,44
2022-10-29T12:47:35.364Z,43
2022-10-29T12:52:36.833Z,43
2022-10-29T12:57:38.763Z,44
2022-10-29T13:02:40.311Z,44
2022-10-29T13:07:41.612Z,44
2022-10-29T13:12:43.399Z,45
2022-10-29T13:17:45.415Z,45
2022-10-29T13:22:47.067Z,45
2022-10-29T13:27:48.924Z,45
2022-10-29T13:32:50.070Z,45
2022-10-29T13:37:51.446Z,44
2022-10-29T13:42:53.272Z,44
2022-10-29T13:47:54.524Z,44
2022-10-29T13:52:56.913Z,45
2022-10-29T13:57:58.074Z,48
2022-10-29T14:02:59.770Z,49
2022-10-29T14:08:01.517Z,49
2022-10-29T14:13:02.963Z,49
2022-10-29T14:18:04.243Z,50
2022-10-29T14:23:05.698Z,51
2022-10-29T14:28:07.397Z,51
2022-10-29T14:33:08.695Z,51
2022-10-29T14:38:11.344Z,50
2022-10-29T14:43:11.840Z,50
2022-10-29T14:48:13.498Z,50
2022-10-29T14:53:15.161Z,50
2022-10-29T14:58:16.917Z,51
2022-10-29T15:03:18.965Z,51
2022-10-29T15:08:20.797Z,51
2022-10-29T15:13:22.346Z,52
2022-10-29T15:18:24.406Z,53
2022-10-29T15:23:26.042Z,54
2022-10-29T15:28:27.251Z,53
2022-10-29T15:33:29.369Z,54
2022-10-29T15:38:30.657Z,54
2022-10-29T15:43:32.003Z,54
2022-10-29T15:48:36.007Z,54
2022-10-29T15:53:35.995Z,55
2022-10-29T15:58:38.197Z,55
2022-10-29T16:03:46.172Z,56
2022-10-29T16:08:47.869Z,56
2022-10-29T16:13:53.446Z,58
2022-10-29T16:18:51.530Z,58
2022-10-29T16:23:53.082Z,58
2022-10-29T16:28:54.376Z,59
2022-10-29T16:33:56.200Z,59
2022-10-29T16:38:57.818Z,60
2022-10-29T16:43:59.927Z,61
2022-10-29T16:49:01.572Z,61
2022-10-29T16:54:03.695Z,63
2022-10-29T16:59:05.714Z,62
2022-10-29T17:04:06.982Z,64
2022-10-29T17:09:09.166Z,64
2022-10-29T17:14:10.716Z,64
2022-10-29T17:19:12.398Z,65
2022-10-29T17:24:14.152Z,65
2022-10-29T17:29:15.405Z,66
2022-10-29T17:34:16.887Z,66
2022-10-29T17:39:18.184Z,67
2022-10-29T17:44:19.437Z,68
2022-10-29T17:49:21.425Z,68
2022-10-29T17:54:22.795Z,68
2022-10-29T17:59:24.131Z,69
2022-10-29T18:04:26.184Z,70
2022-10-29T18:09:27.858Z,70
2022-10-29T18:14:28.951Z,70
2022-10-29T18:19:31.004Z,72
2022-10-29T18:24:32.805Z,71
2022-10-29T18:29:34.094Z,72
2022-10-29T18:34:35.471Z,72
2022-10-29T18:39:37.494Z,73
2022-10-29T18:44:39.324Z,73
2022-10-29T18:49:40.544Z,74
2022-10-29T18:54:42.259Z,74
2022-10-29T18:59:43.896Z,74
2022-10-29T19:04:45.670Z,75
2022-10-29T19:09:46.986Z,76
2022-10-29T19:14:48.861Z,75
2022-10-29T19:19:50.967Z,76
2022-10-29T19:24:53.091Z,75
2022-10-29T19:29:55.167Z,76
2022-10-29T19:34:57.258Z,77
2022-10-29T19:39:58.958Z,76
2022-10-29T19:45:00.342Z,77
2022-10-29T19:50:01.764Z,78
2022-10-29T19:55:03.118Z,78
2022-10-29T20:00:04.610Z,77
2022-10-29T20:05:06.134Z,78
2022-10-29T20:10:07.535Z,78
2022-10-29T20:15:09.281Z,78
2022-10-29T20:20:15.885Z,79
2022-10-29T20:25:14.013Z,78
2022-10-29T20:30:15.511Z,79
2022-10-29T20:35:17.546Z,79
2022-10-29T20:40:19.501Z,79
2022-10-29T20:45:21.513Z,79
2022-10-29T20:50:23.095Z,80
2022-10-29T20:55:24.505Z,79
2022-10-29T21:00:26.157Z,79
2022-10-29T21:05:28.139Z,80
2022-10-29T21:10:30.026Z,80
2022-10-29T21:15:31.962Z,81
2022-10-29T21:20:33.912Z,81
2022-10-29T21:25:35.755Z,81
2022-10-29T21:30:37.023Z,81
2022-10-29T21:35:38.427Z,81
2022-10-29T21:40:40.390Z,81
2022-10-29T21:45:41.500Z,81
2022-10-29T21:50:43.013Z,81
2022-10-29T21:55:45.214Z,81
2022-10-29T22:15:51.805Z,81
2022-10-29T22:20:53.796Z,82
2022-10-29T22:25:55.165Z,82
2022-10-29T22:30:56.634Z,81
2022-10-29T22:35:58.443Z,81
2022-10-29T22:40:59.899Z,81
2022-10-29T22:46:02.084Z,81
2022-10-29T22:51:03.224Z,81
2022-10-29T22:56:04.452Z,81
2022-10-29T23:01:06.309Z,81
2022-10-29T23:06:08.113Z,80
2022-10-29T23:11:09.579Z,81
2022-10-29T23:16:10.960Z,81
2022-10-29T23:21:13.070Z,80
2022-10-29T23:26:14.571Z,80
2022-10-29T23:31:16.306Z,80
2022-10-29T23:36:17.483Z,80
2022-10-29T23:41:19.458Z,81
2022-10-29T23:46:21.190Z,80
2022-10-29T23:56:24.748Z,80
